sensor_id;sensor_type;location;lat;lon;timestamp;P1;durP1;ratioP1;P2;durP2;ratioP2
71671;SDS011;67659;45.554;11.812;2023-08-01T00:02:24;11.48;;;8.68;;
71671;SDS011;67659;45.554;11.812;2023-08-01T00:04:50;11.27;;;8.15;;
71671;SDS011;67659;45.554;11.812;2023-08-01T00:07:16;11.70;;;8.87;;
71671;SDS011;67659;45.554;11.812;2023-08-01T00:09:42;12.63;;;8.75;;
71671;SDS011;67659;45.554;11.812;2023-08-01T00:12:07;10.93;;;7.87;;
71671;SDS011;67659;45.554;11.812;2023-08-01T00:14:35;11.10;;;7.68;;
71671;SDS011;67659;45.554;11.812;2023-08-01T00:17:01;11.25;;;7.93;;
71671;SDS011;67659;45.554;11.812;2023-08-01T00:19:28;11.77;;;7.45;;
71671;SDS011;67659;45.554;11.812;2023-08-01T00:21:53;10.38;;;7.97;;
71671;SDS011;67659;45.554;11.812;2023-08-01T00:24:19;12.33;;;7.73;;
71671;SDS011;67659;45.554;11.812;2023-08-01T00:26:45;11.45;;;7.82;;
71671;SDS011;67659;45.554;11.812;2023-08-01T00:29:12;12.07;;;8.40;;
71671;SDS011;67659;45.554;11.812;2023-08-01T00:31:38;10.68;;;7.97;;
71671;SDS011;67659;45.554;11.812;2023-08-01T00:34:04;12.77;;;8.13;;
71671;SDS011;67659;45.554;11.812;2023-08-01T00:36:30;10.77;;;7.97;;
71671;SDS011;67659;45.554;11.812;2023-08-01T00:38:56;11.63;;;8.07;;
71671;SDS011;67659;45.554;11.812;2023-08-01T00:41:21;11.00;;;8.25;;
71671;SDS011;67659;45.554;11.812;2023-08-01T00:43:47;12.98;;;8.90;;
71671;SDS011;67659;45.554;11.812;2023-08-01T00:46:13;12.93;;;8.77;;
71671;SDS011;67659;45.554;11.812;2023-08-01T00:48:39;13.70;;;9.35;;
71671;SDS011;67659;45.554;11.812;2023-08-01T00:51:06;11.60;;;8.35;;
71671;SDS011;67659;45.554;11.812;2023-08-01T00:53:35;14.15;;;8.45;;
71671;SDS011;67659;45.554;11.812;2023-08-01T00:56:01;11.90;;;8.33;;
71671;SDS011;67659;45.554;11.812;2023-08-01T00:58:27;13.18;;;8.10;;
71671;SDS011;67659;45.554;11.812;2023-08-01T01:00:52;12.55;;;8.90;;
71671;SDS011;67659;45.554;11.812;2023-08-01T01:03:20;10.50;;;8.07;;
71671;SDS011;67659;45.554;11.812;2023-08-01T01:05:47;14.63;;;9.60;;
71671;SDS011;67659;45.554;11.812;2023-08-01T01:08:19;12.73;;;9.63;;
71671;SDS011;67659;45.554;11.812;2023-08-01T01:10:45;12.85;;;9.30;;
71671;SDS011;67659;45.554;11.812;2023-08-01T01:13:11;12.05;;;8.80;;
71671;SDS011;67659;45.554;11.812;2023-08-01T01:15:37;13.97;;;9.07;;
71671;SDS011;67659;45.554;11.812;2023-08-01T01:18:03;12.27;;;8.63;;
71671;SDS011;67659;45.554;11.812;2023-08-01T01:20:31;11.68;;;9.65;;
71671;SDS011;67659;45.554;11.812;2023-08-01T01:23:00;13.18;;;9.73;;
71671;SDS011;67659;45.554;11.812;2023-08-01T01:25:29;14.00;;;9.87;;
71671;SDS011;67659;45.554;11.812;2023-08-01T01:27:56;11.48;;;9.40;;
71671;SDS011;67659;45.554;11.812;2023-08-01T01:30:23;13.27;;;9.27;;
71671;SDS011;67659;45.554;11.812;2023-08-01T01:32:49;12.95;;;9.38;;
71671;SDS011;67659;45.554;11.812;2023-08-01T01:35:15;15.27;;;11.10;;
71671;SDS011;67659;45.554;11.812;2023-08-01T01:37:41;12.97;;;9.90;;
71671;SDS011;67659;45.554;11.812;2023-08-01T01:40:07;16.13;;;11.57;;
71671;SDS011;67659;45.554;11.812;2023-08-01T01:42:34;13.80;;;10.65;;
71671;SDS011;67659;45.554;11.812;2023-08-01T01:44:59;13.03;;;9.50;;
71671;SDS011;67659;45.554;11.812;2023-08-01T01:47:25;13.65;;;10.32;;
71671;SDS011;67659;45.554;11.812;2023-08-01T01:49:51;16.65;;;12.00;;
71671;SDS011;67659;45.554;11.812;2023-08-01T01:52:17;16.13;;;11.27;;
71671;SDS011;67659;45.554;11.812;2023-08-01T01:54:43;14.00;;;11.60;;
71671;SDS011;67659;45.554;11.812;2023-08-01T01:57:08;12.80;;;9.77;;
71671;SDS011;67659;45.554;11.812;2023-08-01T01:59:34;14.88;;;10.77;;
71671;SDS011;67659;45.554;11.812;2023-08-01T02:02:00;13.93;;;10.82;;
71671;SDS011;67659;45.554;11.812;2023-08-01T02:04:29;15.00;;;11.60;;
71671;SDS011;67659;45.554;11.812;2023-08-01T02:06:55;13.87;;;11.10;;
71671;SDS011;67659;45.554;11.812;2023-08-01T02:09:21;16.83;;;12.60;;
71671;SDS011;67659;45.554;11.812;2023-08-01T02:11:46;16.48;;;11.65;;
71671;SDS011;67659;45.554;11.812;2023-08-01T02:14:13;14.13;;;9.80;;
71671;SDS011;67659;45.554;11.812;2023-08-01T02:16:38;12.00;;;9.32;;
71671;SDS011;67659;45.554;11.812;2023-08-01T02:19:04;14.25;;;10.68;;
71671;SDS011;67659;45.554;11.812;2023-08-01T02:21:30;14.73;;;10.10;;
71671;SDS011;67659;45.554;11.812;2023-08-01T02:23:56;14.75;;;10.10;;
71671;SDS011;67659;45.554;11.812;2023-08-01T02:26:22;15.27;;;10.75;;
71671;SDS011;67659;45.554;11.812;2023-08-01T02:28:49;14.37;;;10.80;;
71671;SDS011;67659;45.554;11.812;2023-08-01T02:31:16;15.43;;;11.45;;
71671;SDS011;67659;45.554;11.812;2023-08-01T02:33:42;13.75;;;10.75;;
71671;SDS011;67659;45.554;11.812;2023-08-01T02:36:08;14.82;;;10.88;;
71671;SDS011;67659;45.554;11.812;2023-08-01T02:38:34;13.60;;;10.40;;
71671;SDS011;67659;45.554;11.812;2023-08-01T02:40:59;16.08;;;11.13;;
71671;SDS011;67659;45.554;11.812;2023-08-01T02:43:25;14.57;;;10.90;;
71671;SDS011;67659;45.554;11.812;2023-08-01T02:45:51;13.03;;;10.90;;
71671;SDS011;67659;45.554;11.812;2023-08-01T02:48:17;15.60;;;10.90;;
71671;SDS011;67659;45.554;11.812;2023-08-01T02:50:43;14.47;;;10.90;;
71671;SDS011;67659;45.554;11.812;2023-08-01T02:53:08;13.07;;;9.68;;
71671;SDS011;67659;45.554;11.812;2023-08-01T02:55:34;13.68;;;10.88;;
71671;SDS011;67659;45.554;11.812;2023-08-01T02:58:00;13.40;;;10.73;;
71671;SDS011;67659;45.554;11.812;2023-08-01T03:00:26;15.80;;;11.05;;
71671;SDS011;67659;45.554;11.812;2023-08-01T03:02:52;14.32;;;10.85;;
71671;SDS011;67659;45.554;11.812;2023-08-01T03:05:18;15.20;;;11.03;;
71671;SDS011;67659;45.554;11.812;2023-08-01T03:07:43;16.38;;;12.02;;
71671;SDS011;67659;45.554;11.812;2023-08-01T03:10:09;16.00;;;11.90;;
71671;SDS011;67659;45.554;11.812;2023-08-01T03:12:36;14.20;;;11.20;;
71671;SDS011;67659;45.554;11.812;2023-08-01T03:15:02;15.55;;;11.50;;
71671;SDS011;67659;45.554;11.812;2023-08-01T03:17:29;16.23;;;11.40;;
71671;SDS011;67659;45.554;11.812;2023-08-01T03:19:54;13.98;;;11.07;;
71671;SDS011;67659;45.554;11.812;2023-08-01T03:22:20;15.17;;;10.43;;
71671;SDS011;67659;45.554;11.812;2023-08-01T03:24:47;15.45;;;10.85;;
71671;SDS011;67659;45.554;11.812;2023-08-01T03:27:13;17.13;;;11.07;;
71671;SDS011;67659;45.554;11.812;2023-08-01T03:29:39;13.93;;;11.20;;
71671;SDS011;67659;45.554;11.812;2023-08-01T03:32:05;15.33;;;11.13;;
71671;SDS011;67659;45.554;11.812;2023-08-01T03:34:31;14.82;;;11.52;;
71671;SDS011;67659;45.554;11.812;2023-08-01T03:36:57;16.60;;;11.60;;
71671;SDS011;67659;45.554;11.812;2023-08-01T03:39:23;15.20;;;11.03;;
71671;SDS011;67659;45.554;11.812;2023-08-01T03:41:48;14.52;;;9.93;;
71671;SDS011;67659;45.554;11.812;2023-08-01T03:44:14;12.27;;;9.90;;
71671;SDS011;67659;45.554;11.812;2023-08-01T03:46:42;13.77;;;10.27;;
71671;SDS011;67659;45.554;11.812;2023-08-01T03:49:08;13.93;;;9.80;;
71671;SDS011;67659;45.554;11.812;2023-08-01T03:51:34;13.98;;;10.23;;
71671;SDS011;67659;45.554;11.812;2023-08-01T03:54:00;13.85;;;9.50;;
71671;SDS011;67659;45.554;11.812;2023-08-01T03:56:26;12.98;;;9.70;;
71671;SDS011;67659;45.554;11.812;2023-08-01T03:58:52;15.33;;;9.90;;
71671;SDS011;67659;45.554;11.812;2023-08-01T04:01:18;14.27;;;10.10;;
71671;SDS011;67659;45.554;11.812;2023-08-01T04:03:45;13.95;;;10.00;;
71671;SDS011;67659;45.554;11.812;2023-08-01T04:06:10;13.37;;;9.47;;
71671;SDS011;67659;45.554;11.812;2023-08-01T04:08:40;12.32;;;9.40;;
71671;SDS011;67659;45.554;11.812;2023-08-01T04:11:06;12.20;;;9.20;;
71671;SDS011;67659;45.554;11.812;2023-08-01T04:13:32;12.25;;;9.82;;
71671;SDS011;67659;45.554;11.812;2023-08-01T04:15:57;12.73;;;9.80;;
71671;SDS011;67659;45.554;11.812;2023-08-01T04:18:23;13.15;;;9.93;;
71671;SDS011;67659;45.554;11.812;2023-08-01T04:20:49;12.88;;;8.80;;
71671;SDS011;67659;45.554;11.812;2023-08-01T04:23:15;12.77;;;8.90;;
71671;SDS011;67659;45.554;11.812;2023-08-01T04:25:41;16.50;;;8.23;;
71671;SDS011;67659;45.554;11.812;2023-08-01T04:28:07;14.93;;;8.10;;
71671;SDS011;67659;45.554;11.812;2023-08-01T04:30:33;14.47;;;8.40;;
71671;SDS011;67659;45.554;11.812;2023-08-01T04:32:59;12.98;;;8.63;;
71671;SDS011;67659;45.554;11.812;2023-08-01T04:35:24;11.02;;;8.43;;
71671;SDS011;67659;45.554;11.812;2023-08-01T04:37:50;11.03;;;7.80;;
71671;SDS011;67659;45.554;11.812;2023-08-01T04:40:16;12.88;;;8.45;;
71671;SDS011;67659;45.554;11.812;2023-08-01T04:42:42;11.20;;;8.35;;
71671;SDS011;67659;45.554;11.812;2023-08-01T04:45:08;10.77;;;8.03;;
71671;SDS011;67659;45.554;11.812;2023-08-01T04:47:34;13.73;;;8.50;;
71671;SDS011;67659;45.554;11.812;2023-08-01T04:50:00;11.85;;;8.95;;
71671;SDS011;67659;45.554;11.812;2023-08-01T04:52:26;12.83;;;8.73;;
71671;SDS011;67659;45.554;11.812;2023-08-01T04:54:52;12.27;;;8.57;;
71671;SDS011;67659;45.554;11.812;2023-08-01T04:57:19;12.05;;;8.63;;
71671;SDS011;67659;45.554;11.812;2023-08-01T04:59:45;12.23;;;8.97;;
71671;SDS011;67659;45.554;11.812;2023-08-01T05:02:11;13.13;;;9.25;;
71671;SDS011;67659;45.554;11.812;2023-08-01T05:04:37;12.52;;;9.10;;
71671;SDS011;67659;45.554;11.812;2023-08-01T05:07:04;12.43;;;9.33;;
71671;SDS011;67659;45.554;11.812;2023-08-01T05:09:35;14.02;;;9.18;;
71671;SDS011;67659;45.554;11.812;2023-08-01T05:12:01;12.32;;;8.55;;
71671;SDS011;67659;45.554;11.812;2023-08-01T05:14:34;11.95;;;9.00;;
71671;SDS011;67659;45.554;11.812;2023-08-01T05:17:00;13.55;;;8.63;;
71671;SDS011;67659;45.554;11.812;2023-08-01T05:19:26;13.30;;;9.10;;
71671;SDS011;67659;45.554;11.812;2023-08-01T05:21:52;12.88;;;9.30;;
71671;SDS011;67659;45.554;11.812;2023-08-01T05:24:20;10.55;;;8.65;;
71671;SDS011;67659;45.554;11.812;2023-08-01T05:26:47;11.60;;;8.55;;
71671;SDS011;67659;45.554;11.812;2023-08-01T05:29:18;12.23;;;9.02;;
71671;SDS011;67659;45.554;11.812;2023-08-01T05:31:57;12.33;;;8.93;;
71671;SDS011;67659;45.554;11.812;2023-08-01T05:34:23;12.55;;;8.82;;
71671;SDS011;67659;45.554;11.812;2023-08-01T05:36:49;11.35;;;8.20;;
71671;SDS011;67659;45.554;11.812;2023-08-01T05:39:15;12.40;;;9.23;;
71671;SDS011;67659;45.554;11.812;2023-08-01T05:41:42;12.50;;;8.37;;
71671;SDS011;67659;45.554;11.812;2023-08-01T05:44:09;11.40;;;8.23;;
71671;SDS011;67659;45.554;11.812;2023-08-01T05:46:35;11.52;;;8.98;;
71671;SDS011;67659;45.554;11.812;2023-08-01T05:49:01;11.77;;;8.30;;
71671;SDS011;67659;45.554;11.812;2023-08-01T05:51:27;11.97;;;8.30;;
71671;SDS011;67659;45.554;11.812;2023-08-01T05:53:53;13.70;;;8.70;;
71671;SDS011;67659;45.554;11.812;2023-08-01T05:56:19;10.77;;;7.93;;
71671;SDS011;67659;45.554;11.812;2023-08-01T05:58:45;12.83;;;8.23;;
71671;SDS011;67659;45.554;11.812;2023-08-01T06:01:11;12.40;;;9.00;;
71671;SDS011;67659;45.554;11.812;2023-08-01T06:03:38;12.25;;;9.50;;
71671;SDS011;67659;45.554;11.812;2023-08-01T06:06:04;10.75;;;8.68;;
71671;SDS011;67659;45.554;11.812;2023-08-01T06:08:30;11.13;;;8.13;;
71671;SDS011;67659;45.554;11.812;2023-08-01T06:10:56;18.42;;;8.65;;
71671;SDS011;67659;45.554;11.812;2023-08-01T06:13:22;12.10;;;9.07;;
71671;SDS011;67659;45.554;11.812;2023-08-01T06:15:48;12.80;;;8.73;;
71671;SDS011;67659;45.554;11.812;2023-08-01T06:18:14;11.52;;;7.55;;
71671;SDS011;67659;45.554;11.812;2023-08-01T06:20:40;12.50;;;8.02;;
71671;SDS011;67659;45.554;11.812;2023-08-01T06:23:06;12.10;;;8.97;;
71671;SDS011;67659;45.554;11.812;2023-08-01T06:25:32;11.00;;;8.30;;
71671;SDS011;67659;45.554;11.812;2023-08-01T06:27:58;9.60;;;6.78;;
71671;SDS011;67659;45.554;11.812;2023-08-01T06:30:24;11.83;;;7.07;;
71671;SDS011;67659;45.554;11.812;2023-08-01T06:32:49;12.38;;;8.85;;
71671;SDS011;67659;45.554;11.812;2023-08-01T06:35:15;12.32;;;8.57;;
71671;SDS011;67659;45.554;11.812;2023-08-01T06:37:41;12.20;;;9.10;;
71671;SDS011;67659;45.554;11.812;2023-08-01T06:40:07;11.77;;;9.38;;
71671;SDS011;67659;45.554;11.812;2023-08-01T06:42:33;10.32;;;8.43;;
71671;SDS011;67659;45.554;11.812;2023-08-01T06:44:59;13.10;;;8.13;;
71671;SDS011;67659;45.554;11.812;2023-08-01T06:47:25;10.98;;;7.60;;
71671;SDS011;67659;45.554;11.812;2023-08-01T06:49:51;8.47;;;6.10;;
71671;SDS011;67659;45.554;11.812;2023-08-01T06:52:21;10.63;;;6.30;;
71671;SDS011;67659;45.554;11.812;2023-08-01T06:54:47;8.85;;;5.53;;
71671;SDS011;67659;45.554;11.812;2023-08-01T06:57:12;9.65;;;5.28;;
71671;SDS011;67659;45.554;11.812;2023-08-01T06:59:38;7.43;;;4.90;;
71671;SDS011;67659;45.554;11.812;2023-08-01T07:02:04;8.52;;;5.07;;
71671;SDS011;67659;45.554;11.812;2023-08-01T07:04:32;8.45;;;5.03;;
71671;SDS011;67659;45.554;11.812;2023-08-01T07:06:59;8.63;;;4.95;;
71671;SDS011;67659;45.554;11.812;2023-08-01T07:09:25;8.03;;;4.50;;
71671;SDS011;67659;45.554;11.812;2023-08-01T07:11:51;9.15;;;4.93;;
71671;SDS011;67659;45.554;11.812;2023-08-01T07:14:16;9.83;;;5.03;;
71671;SDS011;67659;45.554;11.812;2023-08-01T07:16:42;8.98;;;5.10;;
71671;SDS011;67659;45.554;11.812;2023-08-01T07:19:08;8.30;;;5.40;;
71671;SDS011;67659;45.554;11.812;2023-08-01T07:21:34;10.00;;;5.83;;
71671;SDS011;67659;45.554;11.812;2023-08-01T07:23:59;8.98;;;5.70;;
71671;SDS011;67659;45.554;11.812;2023-08-01T07:26:25;8.37;;;5.17;;
71671;SDS011;67659;45.554;11.812;2023-08-01T07:28:53;9.25;;;5.35;;
71671;SDS011;67659;45.554;11.812;2023-08-01T07:31:19;7.93;;;5.15;;
71671;SDS011;67659;45.554;11.812;2023-08-01T07:33:45;12.05;;;5.50;;
71671;SDS011;67659;45.554;11.812;2023-08-01T07:36:11;9.67;;;5.20;;
71671;SDS011;67659;45.554;11.812;2023-08-01T07:38:37;9.18;;;5.43;;
71671;SDS011;67659;45.554;11.812;2023-08-01T07:41:03;8.18;;;4.50;;
71671;SDS011;67659;45.554;11.812;2023-08-01T07:43:30;7.67;;;4.00;;
71671;SDS011;67659;45.554;11.812;2023-08-01T07:45:59;7.25;;;3.95;;
71671;SDS011;67659;45.554;11.812;2023-08-01T07:48:25;6.55;;;4.07;;
71671;SDS011;67659;45.554;11.812;2023-08-01T07:50:51;8.33;;;3.80;;
71671;SDS011;67659;45.554;11.812;2023-08-01T07:53:17;6.60;;;3.67;;
71671;SDS011;67659;45.554;11.812;2023-08-01T07:55:42;6.60;;;3.90;;
71671;SDS011;67659;45.554;11.812;2023-08-01T07:58:08;5.57;;;3.57;;
71671;SDS011;67659;45.554;11.812;2023-08-01T08:00:34;6.53;;;3.53;;
71671;SDS011;67659;45.554;11.812;2023-08-01T08:03:00;6.70;;;3.33;;
71671;SDS011;67659;45.554;11.812;2023-08-01T08:05:26;6.40;;;3.43;;
71671;SDS011;67659;45.554;11.812;2023-08-01T08:07:52;7.22;;;3.20;;
71671;SDS011;67659;45.554;11.812;2023-08-01T08:10:18;7.05;;;3.45;;
71671;SDS011;67659;45.554;11.812;2023-08-01T08:12:44;6.33;;;3.60;;
71671;SDS011;67659;45.554;11.812;2023-08-01T08:15:09;6.93;;;3.42;;
71671;SDS011;67659;45.554;11.812;2023-08-01T08:17:36;7.38;;;3.63;;
71671;SDS011;67659;45.554;11.812;2023-08-01T08:20:02;6.20;;;3.20;;
71671;SDS011;67659;45.554;11.812;2023-08-01T08:22:28;5.95;;;3.42;;
71671;SDS011;67659;45.554;11.812;2023-08-01T08:24:54;7.60;;;3.60;;
71671;SDS011;67659;45.554;11.812;2023-08-01T08:27:20;7.33;;;3.47;;
71671;SDS011;67659;45.554;11.812;2023-08-01T08:29:46;6.57;;;3.35;;
71671;SDS011;67659;45.554;11.812;2023-08-01T08:32:11;6.40;;;3.17;;
71671;SDS011;67659;45.554;11.812;2023-08-01T08:34:37;6.60;;;2.73;;
71671;SDS011;67659;45.554;11.812;2023-08-01T08:37:04;5.75;;;2.85;;
71671;SDS011;67659;45.554;11.812;2023-08-01T08:39:30;6.57;;;3.22;;
71671;SDS011;67659;45.554;11.812;2023-08-01T08:41:56;5.77;;;3.60;;
71671;SDS011;67659;45.554;11.812;2023-08-01T08:44:22;5.60;;;3.17;;
71671;SDS011;67659;45.554;11.812;2023-08-01T08:46:55;6.28;;;3.58;;
71671;SDS011;67659;45.554;11.812;2023-08-01T08:49:27;5.80;;;3.20;;
71671;SDS011;67659;45.554;11.812;2023-08-01T08:51:54;6.18;;;2.80;;
71671;SDS011;67659;45.554;11.812;2023-08-01T08:54:20;5.57;;;2.90;;
71671;SDS011;67659;45.554;11.812;2023-08-01T08:56:46;6.15;;;2.88;;
71671;SDS011;67659;45.554;11.812;2023-08-01T08:59:13;7.28;;;3.17;;
71671;SDS011;67659;45.554;11.812;2023-08-01T09:01:39;8.38;;;3.10;;
71671;SDS011;67659;45.554;11.812;2023-08-01T09:04:05;5.70;;;2.67;;
71671;SDS011;67659;45.554;11.812;2023-08-01T09:06:32;8.03;;;2.80;;
71671;SDS011;67659;45.554;11.812;2023-08-01T09:09:12;6.03;;;2.53;;
71671;SDS011;67659;45.554;11.812;2023-08-01T09:11:50;8.10;;;2.65;;
71671;SDS011;67659;45.554;11.812;2023-08-01T09:14:17;6.25;;;2.90;;
71671;SDS011;67659;45.554;11.812;2023-08-01T09:16:44;6.88;;;2.78;;
71671;SDS011;67659;45.554;11.812;2023-08-01T09:19:15;6.33;;;3.10;;
71671;SDS011;67659;45.554;11.812;2023-08-01T09:21:46;6.38;;;2.65;;
71671;SDS011;67659;45.554;11.812;2023-08-01T09:24:13;5.40;;;2.85;;
71671;SDS011;67659;45.554;11.812;2023-08-01T09:26:41;5.47;;;2.70;;
71671;SDS011;67659;45.554;11.812;2023-08-01T09:29:08;6.22;;;2.90;;
71671;SDS011;67659;45.554;11.812;2023-08-01T09:31:35;5.90;;;2.70;;
71671;SDS011;67659;45.554;11.812;2023-08-01T09:34:04;6.43;;;3.00;;
71671;SDS011;67659;45.554;11.812;2023-08-01T09:36:31;5.57;;;2.72;;
71671;SDS011;67659;45.554;11.812;2023-08-01T09:39:01;5.90;;;3.13;;
71671;SDS011;67659;45.554;11.812;2023-08-01T09:41:29;5.57;;;2.70;;
71671;SDS011;67659;45.554;11.812;2023-08-01T09:43:56;5.53;;;2.77;;
71671;SDS011;67659;45.554;11.812;2023-08-01T09:46:22;5.97;;;2.70;;
71671;SDS011;67659;45.554;11.812;2023-08-01T09:48:48;5.13;;;2.83;;
71671;SDS011;67659;45.554;11.812;2023-08-01T09:51:15;4.97;;;2.70;;
71671;SDS011;67659;45.554;11.812;2023-08-01T09:53:55;5.37;;;2.77;;
71671;SDS011;67659;45.554;11.812;2023-08-01T09:56:22;7.70;;;2.50;;
71671;SDS011;67659;45.554;11.812;2023-08-01T09:58:50;5.60;;;2.80;;
71671;SDS011;67659;45.554;11.812;2023-08-01T10:01:18;6.03;;;2.70;;
71671;SDS011;67659;45.554;11.812;2023-08-01T10:03:46;5.07;;;2.70;;
71671;SDS011;67659;45.554;11.812;2023-08-01T10:06:20;5.10;;;2.90;;
71671;SDS011;67659;45.554;11.812;2023-08-01T10:08:48;6.07;;;2.70;;
71671;SDS011;67659;45.554;11.812;2023-08-01T10:11:16;5.25;;;2.70;;
71671;SDS011;67659;45.554;11.812;2023-08-01T10:13:44;7.13;;;3.03;;
71671;SDS011;67659;45.554;11.812;2023-08-01T10:16:11;5.25;;;3.10;;
71671;SDS011;67659;45.554;11.812;2023-08-01T10:18:37;6.13;;;3.00;;
71671;SDS011;67659;45.554;11.812;2023-08-01T10:21:05;5.78;;;3.20;;
71671;SDS011;67659;45.554;11.812;2023-08-01T10:23:32;6.18;;;3.25;;
71671;SDS011;67659;45.554;11.812;2023-08-01T10:26:03;5.57;;;2.83;;
71671;SDS011;67659;45.554;11.812;2023-08-01T10:28:32;5.93;;;3.40;;
71671;SDS011;67659;45.554;11.812;2023-08-01T10:31:10;6.13;;;2.83;;
71671;SDS011;67659;45.554;11.812;2023-08-01T10:33:39;6.00;;;3.03;;
71671;SDS011;67659;45.554;11.812;2023-08-01T10:36:19;7.03;;;3.53;;
71671;SDS011;67659;45.554;11.812;2023-08-01T10:41:18;6.15;;;3.35;;
71671;SDS011;67659;45.554;11.812;2023-08-01T10:43:51;6.17;;;3.40;;
71671;SDS011;67659;45.554;11.812;2023-08-01T10:46:17;6.15;;;3.85;;
71671;SDS011;67659;45.554;11.812;2023-08-01T10:48:49;5.60;;;3.17;;
71671;SDS011;67659;45.554;11.812;2023-08-01T10:51:16;5.35;;;3.15;;
71671;SDS011;67659;45.554;11.812;2023-08-01T10:53:42;6.77;;;3.60;;
71671;SDS011;67659;45.554;11.812;2023-08-01T10:56:15;7.70;;;3.08;;
71671;SDS011;67659;45.554;11.812;2023-08-01T10:58:44;6.50;;;3.35;;
71671;SDS011;67659;45.554;11.812;2023-08-01T11:01:14;7.75;;;3.95;;
71671;SDS011;67659;45.554;11.812;2023-08-01T11:03:40;7.00;;;3.50;;
71671;SDS011;67659;45.554;11.812;2023-08-01T11:06:07;6.15;;;3.33;;
71671;SDS011;67659;45.554;11.812;2023-08-01T11:08:36;6.53;;;3.17;;
71671;SDS011;67659;45.554;11.812;2023-08-01T11:11:05;5.63;;;3.37;;
71671;SDS011;67659;45.554;11.812;2023-08-01T11:13:33;7.22;;;3.80;;
71671;SDS011;67659;45.554;11.812;2023-08-01T11:16:03;5.82;;;3.40;;
71671;SDS011;67659;45.554;11.812;2023-08-01T11:18:41;8.07;;;3.50;;
71671;SDS011;67659;45.554;11.812;2023-08-01T11:21:08;6.82;;;3.40;;
71671;SDS011;67659;45.554;11.812;2023-08-01T11:23:33;5.70;;;3.50;;
71671;SDS011;67659;45.554;11.812;2023-08-01T11:26:01;5.35;;;2.95;;
71671;SDS011;67659;45.554;11.812;2023-08-01T11:28:36;6.88;;;4.00;;
71671;SDS011;67659;45.554;11.812;2023-08-01T11:31:10;7.60;;;3.90;;
71671;SDS011;67659;45.554;11.812;2023-08-01T11:33:37;7.10;;;3.60;;
71671;SDS011;67659;45.554;11.812;2023-08-01T11:36:03;6.22;;;3.22;;
71671;SDS011;67659;45.554;11.812;2023-08-01T11:38:31;6.18;;;3.28;;
71671;SDS011;67659;45.554;11.812;2023-08-01T11:40:59;5.10;;;2.70;;
71671;SDS011;67659;45.554;11.812;2023-08-01T11:43:26;5.93;;;3.40;;
71671;SDS011;67659;45.554;11.812;2023-08-01T11:46:02;6.68;;;3.60;;
71671;SDS011;67659;45.554;11.812;2023-08-01T11:48:28;5.90;;;3.55;;
71671;SDS011;67659;45.554;11.812;2023-08-01T11:50:58;5.93;;;3.40;;
71671;SDS011;67659;45.554;11.812;2023-08-01T11:53:24;6.75;;;3.78;;
71671;SDS011;67659;45.554;11.812;2023-08-01T11:55:50;5.85;;;3.50;;
71671;SDS011;67659;45.554;11.812;2023-08-01T11:58:40;5.85;;;3.72;;
71671;SDS011;67659;45.554;11.812;2023-08-01T12:01:07;7.93;;;3.47;;
71671;SDS011;67659;45.554;11.812;2023-08-01T12:03:48;7.38;;;3.30;;
71671;SDS011;67659;45.554;11.812;2023-08-01T12:06:17;5.93;;;3.55;;
71671;SDS011;67659;45.554;11.812;2023-08-01T12:08:45;6.95;;;3.42;;
71671;SDS011;67659;45.554;11.812;2023-08-01T12:13:48;5.90;;;3.37;;
71671;SDS011;67659;45.554;11.812;2023-08-01T12:16:25;6.65;;;3.42;;
71671;SDS011;67659;45.554;11.812;2023-08-01T12:18:51;5.95;;;3.58;;
71671;SDS011;67659;45.554;11.812;2023-08-01T12:21:19;5.57;;;3.20;;
71671;SDS011;67659;45.554;11.812;2023-08-01T12:23:45;7.57;;;3.35;;
71671;SDS011;67659;45.554;11.812;2023-08-01T12:26:10;5.90;;;3.70;;
71671;SDS011;67659;45.554;11.812;2023-08-01T12:28:37;6.43;;;3.58;;
71671;SDS011;67659;45.554;11.812;2023-08-01T12:31:03;5.53;;;3.40;;
71671;SDS011;67659;45.554;11.812;2023-08-01T12:33:29;7.13;;;3.42;;
71671;SDS011;67659;45.554;11.812;2023-08-01T12:35:56;5.25;;;2.92;;
71671;SDS011;67659;45.554;11.812;2023-08-01T12:38:22;6.78;;;3.47;;
71671;SDS011;67659;45.554;11.812;2023-08-01T12:40:48;6.70;;;3.63;;
71671;SDS011;67659;45.554;11.812;2023-08-01T12:43:14;7.28;;;3.80;;
71671;SDS011;67659;45.554;11.812;2023-08-01T12:45:42;8.02;;;3.58;;
71671;SDS011;67659;45.554;11.812;2023-08-01T12:48:08;6.20;;;3.67;;
71671;SDS011;67659;45.554;11.812;2023-08-01T12:50:35;7.22;;;3.75;;
71671;SDS011;67659;45.554;11.812;2023-08-01T12:53:04;5.97;;;3.40;;
71671;SDS011;67659;45.554;11.812;2023-08-01T12:55:35;7.10;;;3.53;;
71671;SDS011;67659;45.554;11.812;2023-08-01T12:58:01;5.78;;;3.60;;
71671;SDS011;67659;45.554;11.812;2023-08-01T13:00:30;8.35;;;3.45;;
71671;SDS011;67659;45.554;11.812;2023-08-01T13:03:00;6.20;;;3.67;;
71671;SDS011;67659;45.554;11.812;2023-08-01T13:05:35;7.30;;;3.47;;
71671;SDS011;67659;45.554;11.812;2023-08-01T13:08:29;6.57;;;3.80;;
71671;SDS011;67659;45.554;11.812;2023-08-01T13:10:56;6.90;;;3.53;;
71671;SDS011;67659;45.554;11.812;2023-08-01T13:13:28;9.32;;;3.97;;
71671;SDS011;67659;45.554;11.812;2023-08-01T13:15:55;6.83;;;4.00;;
71671;SDS011;67659;45.554;11.812;2023-08-01T13:18:22;8.30;;;4.10;;
71671;SDS011;67659;45.554;11.812;2023-08-01T13:20:48;7.43;;;4.20;;
71671;SDS011;67659;45.554;11.812;2023-08-01T13:23:14;7.90;;;4.33;;
71671;SDS011;67659;45.554;11.812;2023-08-01T13:25:39;6.43;;;4.13;;
71671;SDS011;67659;45.554;11.812;2023-08-01T13:28:05;6.55;;;3.97;;
71671;SDS011;67659;45.554;11.812;2023-08-01T13:30:32;6.77;;;4.07;;
71671;SDS011;67659;45.554;11.812;2023-08-01T13:32:58;6.85;;;4.35;;
71671;SDS011;67659;45.554;11.812;2023-08-01T13:35:25;7.25;;;4.00;;
71671;SDS011;67659;45.554;11.812;2023-08-01T13:37:51;6.57;;;4.20;;
71671;SDS011;67659;45.554;11.812;2023-08-01T13:40:16;6.67;;;4.30;;
71671;SDS011;67659;45.554;11.812;2023-08-01T13:42:42;6.35;;;4.40;;
71671;SDS011;67659;45.554;11.812;2023-08-01T13:45:08;10.00;;;4.63;;
71671;SDS011;67659;45.554;11.812;2023-08-01T13:47:34;6.10;;;4.17;;
71671;SDS011;67659;45.554;11.812;2023-08-01T13:50:00;8.30;;;4.55;;
71671;SDS011;67659;45.554;11.812;2023-08-01T13:52:25;7.00;;;4.73;;
71671;SDS011;67659;45.554;11.812;2023-08-01T13:54:52;7.47;;;4.80;;
71671;SDS011;67659;45.554;11.812;2023-08-01T13:57:18;11.60;;;4.60;;
71671;SDS011;67659;45.554;11.812;2023-08-01T13:59:46;7.33;;;4.80;;
71671;SDS011;67659;45.554;11.812;2023-08-01T14:02:12;7.18;;;4.80;;
71671;SDS011;67659;45.554;11.812;2023-08-01T14:04:38;10.30;;;4.80;;
71671;SDS011;67659;45.554;11.812;2023-08-01T14:07:04;7.67;;;4.70;;
71671;SDS011;67659;45.554;11.812;2023-08-01T14:09:30;7.68;;;4.43;;
71671;SDS011;67659;45.554;11.812;2023-08-01T14:11:57;6.78;;;4.50;;
71671;SDS011;67659;45.554;11.812;2023-08-01T14:14:24;6.93;;;4.43;;
71671;SDS011;67659;45.554;11.812;2023-08-01T14:16:49;6.77;;;4.50;;
71671;SDS011;67659;45.554;11.812;2023-08-01T14:19:15;7.82;;;4.75;;
71671;SDS011;67659;45.554;11.812;2023-08-01T14:21:41;8.47;;;4.70;;
71671;SDS011;67659;45.554;11.812;2023-08-01T14:24:06;7.15;;;4.57;;
71671;SDS011;67659;45.554;11.812;2023-08-01T14:26:32;7.07;;;4.40;;
71671;SDS011;67659;45.554;11.812;2023-08-01T14:28:58;6.88;;;4.30;;
71671;SDS011;67659;45.554;11.812;2023-08-01T14:31:24;8.23;;;5.07;;